sensor_id;sensor_type;location;lat;lon;timestamp;pressure;altitude;pressure_sealevel;temperature;humidity
75497;BME280;64074;47.540;19.072;2023-02-01T00:02:13;100642.22;;;4.73;70.99
75497;BME280;64074;47.540;19.072;2023-02-01T00:05:33;100641.81;;;4.64;70.80
75497;BME280;64074;47.540;19.072;2023-02-01T00:08:54;100628.13;;;4.87;70.43
75497;BME280;64074;47.540;19.072;2023-02-01T00:12:21;100629.56;;;4.95;70.59
75497;BME280;64074;47.540;19.072;2023-02-01T00:15:34;100629.66;;;5.00;70.00
75497;BME280;64074;47.540;19.072;2023-02-01T00:19:10;100627.69;;;4.95;69.64
75497;BME280;64074;47.540;19.072;2023-02-01T00:22:24;100627.13;;;5.15;69.81
75497;BME280;64074;47.540;19.072;2023-02-01T00:25:44;100624.16;;;5.17;69.31
75497;BME280;64074;47.540;19.072;2023-02-01T00:29:07;100633.44;;;5.04;69.46
75497;BME280;64074;47.540;19.072;2023-02-01T00:32:19;100621.56;;;5.22;68.88
75497;BME280;64074;47.540;19.072;2023-02-01T00:35:23;100635.81;;;5.22;68.43
75497;BME280;64074;47.540;19.072;2023-02-01T00:38:35;100631.97;;;5.18;68.15
75497;BME280;64074;47.540;19.072;2023-02-01T00:41:57;100626.13;;;5.21;68.32
75497;BME280;64074;47.540;19.072;2023-02-01T00:45:07;100611.66;;;5.28;67.60
75497;BME280;64074;47.540;19.072;2023-02-01T00:48:36;100616.50;;;5.25;67.27
75497;BME280;64074;47.540;19.072;2023-02-01T00:51:39;100619.22;;;5.31;67.07
75497;BME280;64074;47.540;19.072;2023-02-01T00:54:49;100628.19;;;5.41;67.14
75497;BME280;64074;47.540;19.072;2023-02-01T00:57:55;100623.53;;;5.32;67.61
75497;BME280;64074;47.540;19.072;2023-02-01T01:04:17;100622.25;;;5.39;67.60
75497;BME280;64074;47.540;19.072;2023-02-01T01:07:27;100616.59;;;5.36;68.30
75497;BME280;64074;47.540;19.072;2023-02-01T01:10:38;100603.94;;;5.36;68.12
75497;BME280;64074;47.540;19.072;2023-02-01T01:13:49;100592.47;;;5.19;68.31
75497;BME280;64074;47.540;19.072;2023-02-01T01:17:17;100593.63;;;5.23;68.93
75497;BME280;64074;47.540;19.072;2023-02-01T01:20:41;100576.25;;;5.09;68.38
75497;BME280;64074;47.540;19.072;2023-02-01T01:24:03;100571.59;;;4.99;68.85
75497;BME280;64074;47.540;19.072;2023-02-01T01:27:23;100571.59;;;4.99;68.58
75497;BME280;64074;47.540;19.072;2023-02-01T01:30:48;100570.66;;;4.88;68.77
75497;BME280;64074;47.540;19.072;2023-02-01T01:34:10;100562.84;;;4.87;69.18
75497;BME280;64074;47.540;19.072;2023-02-01T01:37:31;100565.94;;;4.74;70.24
75497;BME280;64074;47.540;19.072;2023-02-01T01:40:48;100563.00;;;4.53;71.01
75497;BME280;64074;47.540;19.072;2023-02-01T01:48:05;100564.94;;;4.80;67.44
75497;BME280;64074;47.540;19.072;2023-02-01T01:51:12;100577.50;;;5.23;66.13
75497;BME280;64074;47.540;19.072;2023-02-01T01:54:25;100569.06;;;5.14;65.48
75497;BME280;64074;47.540;19.072;2023-02-01T01:57:44;100551.06;;;5.15;65.21
75497;BME280;64074;47.540;19.072;2023-02-01T02:00:56;100546.72;;;5.41;64.52
75497;BME280;64074;47.540;19.072;2023-02-01T02:04:33;100549.63;;;5.34;63.87
75497;BME280;64074;47.540;19.072;2023-02-01T02:07:57;100539.31;;;5.53;63.41
75497;BME280;64074;47.540;19.072;2023-02-01T02:11:07;100549.66;;;5.39;64.05
75497;BME280;64074;47.540;19.072;2023-02-01T02:14:35;100545.31;;;5.33;64.06
75497;BME280;64074;47.540;19.072;2023-02-01T02:18:03;100551.03;;;5.42;63.66
75497;BME280;64074;47.540;19.072;2023-02-01T02:35:26;100533.97;;;5.26;64.89
75497;BME280;64074;47.540;19.072;2023-02-01T02:46:03;100527.50;;;5.22;64.87
75497;BME280;64074;47.540;19.072;2023-02-01T02:49:52;100525.03;;;4.93;65.79
75497;BME280;64074;47.540;19.072;2023-02-01T02:53:33;100521.50;;;5.15;65.45
75497;BME280;64074;47.540;19.072;2023-02-01T02:57:26;100519.25;;;5.34;65.23
75497;BME280;64074;47.540;19.072;2023-02-01T03:00:56;100522.72;;;5.02;65.81
75497;BME280;64074;47.540;19.072;2023-02-01T03:04:35;100504.66;;;5.24;65.47
75497;BME280;64074;47.540;19.072;2023-02-01T03:08:09;100507.06;;;5.21;65.44
75497;BME280;64074;47.540;19.072;2023-02-01T03:11:20;100486.94;;;5.29;65.11
75497;BME280;64074;47.540;19.072;2023-02-01T03:14:33;100487.22;;;5.27;64.64
75497;BME280;64074;47.540;19.072;2023-02-01T03:17:57;100491.81;;;5.32;64.54
75497;BME280;64074;47.540;19.072;2023-02-01T03:21:24;100490.72;;;5.28;65.01
75497;BME280;64074;47.540;19.072;2023-02-01T03:28:07;100487.44;;;5.20;64.78
75497;BME280;64074;47.540;19.072;2023-02-01T03:31:29;100488.09;;;5.38;64.34
75497;BME280;64074;47.540;19.072;2023-02-01T03:34:39;100481.28;;;5.25;65.03
75497;BME280;64074;47.540;19.072;2023-02-01T03:38:21;100468.03;;;5.18;65.48
75497;BME280;64074;47.540;19.072;2023-02-01T03:41:41;100478.63;;;4.98;65.45
75497;BME280;64074;47.540;19.072;2023-02-01T03:45:10;100492.19;;;5.13;64.89
75497;BME280;64074;47.540;19.072;2023-02-01T03:48:24;100482.97;;;5.04;65.23
75497;BME280;64074;47.540;19.072;2023-02-01T03:51:42;100498.84;;;5.06;65.02
75497;BME280;64074;47.540;19.072;2023-02-01T03:55:05;100483.09;;;5.19;65.18
75497;BME280;64074;47.540;19.072;2023-02-01T03:58:23;100493.00;;;5.14;65.66
75497;BME280;64074;47.540;19.072;2023-02-01T04:01:47;100472.06;;;4.89;65.96
75497;BME280;64074;47.540;19.072;2023-02-01T04:05:09;100477.31;;;5.01;65.81
75497;BME280;64074;47.540;19.072;2023-02-01T04:08:36;100482.44;;;5.02;66.10
75497;BME280;64074;47.540;19.072;2023-02-01T04:11:56;100493.44;;;5.01;65.71
75497;BME280;64074;47.540;19.072;2023-02-01T04:15:10;100501.63;;;4.89;66.18
75497;BME280;64074;47.540;19.072;2023-02-01T04:18:17;100495.44;;;4.88;66.69
75497;BME280;64074;47.540;19.072;2023-02-01T04:21:20;100483.81;;;5.10;65.49
75497;BME280;64074;47.540;19.072;2023-02-01T04:24:30;100478.50;;;4.88;66.10
75497;BME280;64074;47.540;19.072;2023-02-01T04:27:57;100482.16;;;5.04;65.75
75497;BME280;64074;47.540;19.072;2023-02-01T04:31:08;100488.97;;;4.84;66.08
75497;BME280;64074;47.540;19.072;2023-02-01T04:34:39;100487.91;;;4.85;66.46
75497;BME280;64074;47.540;19.072;2023-02-01T04:37:42;100489.94;;;4.73;67.00
75497;BME280;64074;47.540;19.072;2023-02-01T04:40:51;100499.75;;;4.89;66.81
75497;BME280;64074;47.540;19.072;2023-02-01T04:43:54;100506.78;;;4.69;67.01
75497;BME280;64074;47.540;19.072;2023-02-01T04:46:57;100502.38;;;4.84;66.33
75497;BME280;64074;47.540;19.072;2023-02-01T04:50:05;100524.47;;;4.91;66.13
75497;BME280;64074;47.540;19.072;2023-02-01T04:53:16;100536.81;;;4.87;66.54
75497;BME280;64074;47.540;19.072;2023-02-01T04:56:38;100501.50;;;4.74;66.64
75497;BME280;64074;47.540;19.072;2023-02-01T04:59:59;100558.34;;;4.71;66.44
75497;BME280;64074;47.540;19.072;2023-02-01T05:03:21;100531.72;;;4.64;67.39
75497;BME280;64074;47.540;19.072;2023-02-01T05:06:28;100506.47;;;4.65;67.36
75497;BME280;64074;47.540;19.072;2023-02-01T05:09:32;100526.09;;;4.66;67.34
75497;BME280;64074;47.540;19.072;2023-02-01T05:12:39;100517.97;;;4.60;67.43
75497;BME280;64074;47.540;19.072;2023-02-01T05:16:04;100512.41;;;4.67;67.38
75497;BME280;64074;47.540;19.072;2023-02-01T05:19:11;100536.16;;;4.75;66.93
75497;BME280;64074;47.540;19.072;2023-02-01T05:22:18;100534.66;;;4.62;67.16
75497;BME280;64074;47.540;19.072;2023-02-01T05:25:28;100531.34;;;4.55;67.29
75497;BME280;64074;47.540;19.072;2023-02-01T05:28:42;100540.88;;;4.68;66.96
75497;BME280;64074;47.540;19.072;2023-02-01T05:32:03;100535.25;;;4.70;66.90
75497;BME280;64074;47.540;19.072;2023-02-01T05:35:31;100535.34;;;4.75;66.96
75497;BME280;64074;47.540;19.072;2023-02-01T05:38:41;100516.66;;;4.63;67.11
75497;BME280;64074;47.540;19.072;2023-02-01T05:41:45;100518.53;;;4.62;66.63
75497;BME280;64074;47.540;19.072;2023-02-01T05:44:55;100526.38;;;4.69;66.93
75497;BME280;64074;47.540;19.072;2023-02-01T05:48:05;100520.75;;;4.71;67.21
75497;BME280;64074;47.540;19.072;2023-02-01T05:51:31;100525.41;;;4.75;67.26
75497;BME280;64074;47.540;19.072;2023-02-01T05:55:03;100536.22;;;4.58;67.85
75497;BME280;64074;47.540;19.072;2023-02-01T05:58:16;100534.13;;;4.66;67.34
75497;BME280;64074;47.540;19.072;2023-02-01T06:01:21;100547.22;;;4.57;67.66
75497;BME280;64074;47.540;19.072;2023-02-01T06:04:26;100533.28;;;4.60;68.09
75497;BME280;64074;47.540;19.072;2023-02-01T06:07:36;100539.91;;;4.52;68.10
75497;BME280;64074;47.540;19.072;2023-02-01T06:10:41;100545.84;;;4.54;68.12
75497;BME280;64074;47.540;19.072;2023-02-01T06:13:48;100539.09;;;4.74;67.63
75497;BME280;64074;47.540;19.072;2023-02-01T06:16:56;100561.81;;;4.66;67.98
75497;BME280;64074;47.540;19.072;2023-02-01T06:20:07;100575.47;;;4.43;68.78
75497;BME280;64074;47.540;19.072;2023-02-01T06:23:26;100582.06;;;4.74;67.96
75497;BME280;64074;47.540;19.072;2023-02-01T06:26:56;100580.44;;;4.73;67.86
75497;BME280;64074;47.540;19.072;2023-02-01T06:30:43;100575.44;;;4.59;68.17
75497;BME280;64074;47.540;19.072;2023-02-01T06:33:53;100585.22;;;4.71;68.04
75497;BME280;64074;47.540;19.072;2023-02-01T06:37:03;100589.78;;;4.92;67.39
75497;BME280;64074;47.540;19.072;2023-02-01T06:40:28;100594.03;;;4.66;68.04
75497;BME280;64074;47.540;19.072;2023-02-01T06:43:45;100589.09;;;4.80;67.88
75497;BME280;64074;47.540;19.072;2023-02-01T06:47:06;100589.34;;;4.78;67.44
75497;BME280;64074;47.540;19.072;2023-02-01T06:50:28;100592.34;;;4.82;67.37
75497;BME280;64074;47.540;19.072;2023-02-01T06:53:58;100596.34;;;4.79;67.31
75497;BME280;64074;47.540;19.072;2023-02-01T06:57:29;100606.03;;;4.80;67.31
75497;BME280;64074;47.540;19.072;2023-02-01T07:01:09;100604.81;;;4.93;66.68
75497;BME280;64074;47.540;19.072;2023-02-01T07:05:02;100591.78;;;5.02;66.24
75497;BME280;64074;47.540;19.072;2023-02-01T07:08:10;100592.03;;;5.00;66.59
75497;BME280;64074;47.540;19.072;2023-02-01T07:11:20;100582.88;;;5.23;65.72
75497;BME280;64074;47.540;19.072;2023-02-01T07:14:28;100584.78;;;5.28;65.89
75497;BME280;64074;47.540;19.072;2023-02-01T07:17:44;100590.28;;;5.16;65.76
75497;BME280;64074;47.540;19.072;2023-02-01T07:20:58;100589.75;;;5.41;65.43
75497;BME280;64074;47.540;19.072;2023-02-01T07:24:13;100593.16;;;5.31;65.87
75497;BME280;64074;47.540;19.072;2023-02-01T07:27:30;100592.69;;;5.39;65.14
75497;BME280;64074;47.540;19.072;2023-02-01T07:30:53;100584.84;;;5.65;64.11
75497;BME280;64074;47.540;19.072;2023-02-01T07:34:25;100594.47;;;5.55;64.42
75497;BME280;64074;47.540;19.072;2023-02-01T07:37:47;100603.09;;;5.90;63.07
75497;BME280;64074;47.540;19.072;2023-02-01T07:41:04;100609.09;;;5.97;63.18
75497;BME280;64074;47.540;19.072;2023-02-01T07:44:13;100602.75;;;6.18;62.00
75497;BME280;64074;47.540;19.072;2023-02-01T07:47:19;100601.94;;;6.17;62.06
75497;BME280;64074;47.540;19.072;2023-02-01T07:55:22;100601.94;;;6.65;59.61
75497;BME280;64074;47.540;19.072;2023-02-01T07:58:43;100615.22;;;6.29;60.17
75497;BME280;64074;47.540;19.072;2023-02-01T08:02:07;100596.66;;;6.33;59.73
75497;BME280;64074;47.540;19.072;2023-02-01T08:05:30;100616.50;;;6.69;59.39
75497;BME280;64074;47.540;19.072;2023-02-01T08:08:37;100605.25;;;6.30;61.00
75497;BME280;64074;47.540;19.072;2023-02-01T08:11:46;100610.34;;;6.21;60.23
75497;BME280;64074;47.540;19.072;2023-02-01T08:14:49;100624.56;;;6.16;61.12
75497;BME280;64074;47.540;19.072;2023-02-01T08:17:59;100596.81;;;6.16;61.19
75497;BME280;64074;47.540;19.072;2023-02-01T08:21:33;100614.13;;;6.25;60.52
75497;BME280;64074;47.540;19.072;2023-02-01T08:24:56;100631.56;;;6.17;60.91
75497;BME280;64074;47.540;19.072;2023-02-01T08:28:18;100644.81;;;6.24;60.86
75497;BME280;64074;47.540;19.072;2023-02-01T08:31:40;100655.03;;;6.22;61.14
75497;BME280;64074;47.540;19.072;2023-02-01T08:35:02;100663.69;;;6.29;60.53
75497;BME280;64074;47.540;19.072;2023-02-01T08:38:46;100656.47;;;6.35;60.86
75497;BME280;64074;47.540;19.072;2023-02-01T08:42:08;100662.59;;;6.25;60.42
75497;BME280;64074;47.540;19.072;2023-02-01T08:45:32;100659.22;;;6.45;59.86
75497;BME280;64074;47.540;19.072;2023-02-01T08:49:11;100667.00;;;6.41;59.92
75497;BME280;64074;47.540;19.072;2023-02-01T08:52:22;100662.66;;;6.35;59.94
75497;BME280;64074;47.540;19.072;2023-02-01T08:55:28;100649.22;;;6.40;60.02
75497;BME280;64074;47.540;19.072;2023-02-01T08:58:39;100644.44;;;6.47;59.52
75497;BME280;64074;47.540;19.072;2023-02-01T09:01:49;100634.06;;;6.71;59.33
75497;BME280;64074;47.540;19.072;2023-02-01T09:04:58;100638.91;;;6.69;59.12
75497;BME280;64074;47.540;19.072;2023-02-01T09:08:22;100650.69;;;6.58;59.16
75497;BME280;64074;47.540;19.072;2023-02-01T09:12:55;100644.31;;;6.74;58.44
75497;BME280;64074;47.540;19.072;2023-02-01T09:16:58;100625.34;;;7.27;57.40
75497;BME280;64074;47.540;19.072;2023-02-01T09:20:05;100625.91;;;7.29;57.42
75497;BME280;64074;47.540;19.072;2023-02-01T09:23:21;100641.75;;;7.15;57.49
75497;BME280;64074;47.540;19.072;2023-02-01T09:26:37;100633.22;;;7.49;56.30
75497;BME280;64074;47.540;19.072;2023-02-01T09:29:49;100644.03;;;7.64;57.26
75497;BME280;64074;47.540;19.072;2023-02-01T09:33:11;100636.78;;;7.95;56.81
75497;BME280;64074;47.540;19.072;2023-02-01T09:36:37;100630.81;;;7.78;58.48
75497;BME280;64074;47.540;19.072;2023-02-01T09:40:29;100640.78;;;7.62;60.10
75497;BME280;64074;47.540;19.072;2023-02-01T09:43:56;100646.06;;;7.16;61.09
75497;BME280;64074;47.540;19.072;2023-02-01T09:47:19;100656.31;;;7.14;61.52
75497;BME280;64074;47.540;19.072;2023-02-01T09:50:37;100634.75;;;7.14;62.61
75497;BME280;64074;47.540;19.072;2023-02-01T09:53:47;100624.28;;;7.23;62.16
75497;BME280;64074;47.540;19.072;2023-02-01T10:02:43;100621.22;;;6.99;61.23
75497;BME280;64074;47.540;19.072;2023-02-01T10:10:40;100615.91;;;7.19;59.55
75497;BME280;64074;47.540;19.072;2023-02-01T10:14:09;100591.38;;;7.21;59.31
75497;BME280;64074;47.540;19.072;2023-02-01T10:17:49;100594.28;;;6.99;59.53
75497;BME280;64074;47.540;19.072;2023-02-01T10:28:14;100570.56;;;7.11;60.50
75497;BME280;64074;47.540;19.072;2023-02-01T10:31:27;100590.50;;;7.05;60.70
75497;BME280;64074;47.540;19.072;2023-02-01T10:40:37;100577.34;;;7.34;59.92
75497;BME280;64074;47.540;19.072;2023-02-01T10:54:39;100562.78;;;7.20;60.96
75497;BME280;64074;47.540;19.072;2023-02-01T11:02:48;100536.09;;;7.69;60.79
75497;BME280;64074;47.540;19.072;2023-02-01T11:05:56;100549.81;;;7.93;59.50
75497;BME280;64074;47.540;19.072;2023-02-01T11:24:04;100525.47;;;8.33;58.31
75497;BME280;64074;47.540;19.072;2023-02-01T11:27:32;100526.78;;;8.41;58.29
75497;BME280;64074;47.540;19.072;2023-02-01T11:31:04;100507.88;;;8.31;59.88
75497;BME280;64074;47.540;19.072;2023-02-01T11:34:22;100516.63;;;8.02;60.84
75497;BME280;64074;47.540;19.072;2023-02-01T11:42:59;100521.19;;;6.85;67.09
75497;BME280;64074;47.540;19.072;2023-02-01T11:46:17;100511.69;;;6.62;67.88
75497;BME280;64074;47.540;19.072;2023-02-01T11:49:47;100513.28;;;6.48;69.07
75497;BME280;64074;47.540;19.072;2023-02-01T12:01:18;100487.09;;;6.43;70.37
75497;BME280;64074;47.540;19.072;2023-02-01T12:21:42;100475.88;;;6.67;70.85
75497;BME280;64074;47.540;19.072;2023-02-01T12:51:27;100492.91;;;4.77;78.29
75497;BME280;64074;47.540;19.072;2023-02-01T12:54:48;100492.91;;;4.77;77.55
75497;BME280;64074;47.540;19.072;2023-02-01T12:58:32;100481.66;;;4.80;77.82
75497;BME280;64074;47.540;19.072;2023-02-01T13:01:42;100461.03;;;5.17;77.03
75497;BME280;64074;47.540;19.072;2023-02-01T13:08:43;100433.09;;;5.55;75.48
75497;BME280;64074;47.540;19.072;2023-02-01T13:11:57;100428.94;;;5.80;75.03
75497;BME280;64074;47.540;19.072;2023-02-01T13:19:18;100414.69;;;5.84;74.84
75497;BME280;64074;47.540;19.072;2023-02-01T13:22:43;100397.44;;;5.75;75.35
75497;BME280;64074;47.540;19.072;2023-02-01T13:26:00;100398.94;;;5.51;76.55
75497;BME280;64074;47.540;19.072;2023-02-01T13:29:11;100392.81;;;5.66;76.13
75497;BME280;64074;47.540;19.072;2023-02-01T13:42:50;100404.56;;;5.49;77.34
75497;BME280;64074;47.540;19.072;2023-02-01T13:46:06;100439.53;;;5.49;77.47
75497;BME280;64074;47.540;19.072;2023-02-01T13:49:32;100435.63;;;5.30;81.26
75497;BME280;64074;47.540;19.072;2023-02-01T13:53:11;100427.56;;;5.30;78.30
75497;BME280;64074;47.540;19.072;2023-02-01T14:00:33;100430.59;;;5.44;78.29
75497;BME280;64074;47.540;19.072;2023-02-01T14:04:05;100413.59;;;5.33;76.18
75497;BME280;64074;47.540;19.072;2023-02-01T14:17:33;100430.53;;;6.28;74.92
75497;BME280;64074;47.540;19.072;2023-02-01T14:22:33;100438.16;;;6.62;74.30
75497;BME280;64074;47.540;19.072;2023-02-01T14:26:06;100479.09;;;6.64;74.18
75497;BME280;64074;47.540;19.072;2023-02-01T14:30:29;100463.56;;;6.08;73.07
75497;BME280;64074;47.540;19.072;2023-02-01T14:33:23;100464.34;;;6.09;72.70
75497;BME280;64074;47.540;19.072;2023-02-01T14:36:59;100452.81;;;6.18;72.68
75497;BME280;64074;47.540;19.072;2023-02-01T14:47:42;100457.47;;;6.43;71.70
75497;BME280;64074;47.540;19.072;2023-02-01T14:51:00;100459.44;;;6.68;72.55
75497;BME280;64074;47.540;19.072;2023-02-01T14:54:53;100455.91;;;6.63;70.48
75497;BME280;64074;47.540;19.072;2023-02-01T14:57:59;100453.50;;;6.66;68.90
75497;BME280;64074;47.540;19.072;2023-02-01T15:01:29;100457.59;;;6.84;67.50
75497;BME280;64074;47.540;19.072;2023-02-01T15:04:41;100448.69;;;6.73;67.97
75497;BME280;64074;47.540;19.072;2023-02-01T15:08:00;100455.44;;;6.81;67.45
75497;BME280;64074;47.540;19.072;2023-02-01T15:11:10;100440.84;;;6.67;67.65
75497;BME280;64074;47.540;19.072;2023-02-01T15:18:32;100432.94;;;6.25;69.05
75497;BME280;64074;47.540;19.072;2023-02-01T15:21:54;100409.53;;;6.25;69.50
75497;BME280;64074;47.540;19.072;2023-02-01T15:25:17;100418.69;;;6.29;69.57
75497;BME280;64074;47.540;19.072;2023-02-01T15:28:47;100410.06;;;6.27;69.70
75497;BME280;64074;47.540;19.072;2023-02-01T15:32:35;100416.25;;;6.28;69.40
75497;BME280;64074;47.540;19.072;2023-02-01T15:36:16;100431.34;;;6.29;68.61
75497;BME280;64074;47.540;19.072;2023-02-01T15:39:29;100427.28;;;6.26;68.63
75497;BME280;64074;47.540;19.072;2023-02-01T15:42:56;100429.94;;;6.16;68.25
75497;BME280;64074;47.540;19.072;2023-02-01T15:46:03;100418.59;;;6.09;68.11
75497;BME280;64074;47.540;19.072;2023-02-01T15:52:39;100424.59;;;6.31;67.59
75497;BME280;64074;47.540;19.072;2023-02-01T15:55:54;100438.03;;;6.21;67.24
75497;BME280;64074;47.540;19.072;2023-02-01T15:59:17;100436.44;;;6.30;67.63
75497;BME280;64074;47.540;19.072;2023-02-01T16:06:02;100436.19;;;6.37;67.21
75497;BME280;64074;47.540;19.072;2023-02-01T16:09:39;100441.31;;;6.33;67.21
75497;BME280;64074;47.540;19.072;2023-02-01T16:12:58;100471.88;;;6.02;69.71
75497;BME280;64074;47.540;19.072;2023-02-01T16:16:12;100465.59;;;5.91;70.11
75497;BME280;64074;47.540;19.072;2023-02-01T16:19:34;100463.94;;;5.85;71.24
75497;BME280;64074;47.540;19.072;2023-02-01T16:22:55;100463.91;;;5.80;70.54
75497;BME280;64074;47.540;19.072;2023-02-01T16:26:25;100447.78;;;5.85;71.01
75497;BME280;64074;47.540;19.072;2023-02-01T16:29:30;100461.53;;;5.88;70.21
75497;BME280;64074;47.540;19.072;2023-02-01T16:32:34;100450.88;;;5.99;69.82
75497;BME280;64074;47.540;19.072;2023-02-01T16:35:40;100460.22;;;5.91;70.58
75497;BME280;64074;47.540;19.072;2023-02-01T16:38:50;100458.13;;;5.98;70.03
75497;BME280;64074;47.540;19.072;2023-02-01T16:42:15;100438.50;;;5.98;69.81
75497;BME280;64074;47.540;19.072;2023-02-01T16:45:38;100436.09;;;6.06;69.10
75497;BME280;64074;47.540;19.072;2023-02-01T16:48:59;100449.28;;;6.08;69.63
75497;BME280;64074;47.540;19.072;2023-02-01T16:52:29;100456.53;;;6.07;71.28
75497;BME280;64074;47.540;19.072;2023-02-01T16:55:50;100430.03;;;5.84;71.88
75497;BME280;64074;47.540;19.072;2023-02-01T16:59:15;100422.56;;;5.91;71.31
75497;BME280;64074;47.540;19.072;2023-02-01T17:02:36;100424.75;;;5.99;70.11
75497;BME280;64074;47.540;19.072;2023-02-01T17:05:56;100440.94;;;6.09;69.55
75497;BME280;64074;47.540;19.072;2023-02-01T17:09:23;100440.94;;;6.09;70.56
75497;BME280;64074;47.540;19.072;2023-02-01T17:12:48;100433.66;;;6.00;70.44
75497;BME280;64074;47.540;19.072;2023-02-01T17:16:29;100424.50;;;6.06;69.20
75497;BME280;64074;47.540;19.072;2023-02-01T17:20:05;100426.13;;;6.07;68.81
75497;BME280;64074;47.540;19.072;2023-02-01T17:23:40;100422.72;;;6.27;67.56
75497;BME280;64074;47.540;19.072;2023-02-01T17:26:48;100418.69;;;6.29;66.94
75497;BME280;64074;47.540;19.072;2023-02-01T17:29:59;100432.69;;;6.31;66.24
75497;BME280;64074;47.540;19.072;2023-02-01T17:33:23;100444.56;;;6.40;65.48
75497;BME280;64074;47.540;19.072;2023-02-01T17:36:27;100435.44;;;6.52;64.42
75497;BME280;64074;47.540;19.072;2023-02-01T17:39:37;100450.75;;;6.41;64.49
75497;BME280;64074;47.540;19.072;2023-02-01T17:43:14;100455.94;;;6.68;64.77
75497;BME280;64074;47.540;19.072;2023-02-01T17:46:25;100445.97;;;6.63;65.46
75497;BME280;64074;47.540;19.072;2023-02-01T17:49:48;100450.75;;;6.41;64.40
75497;BME280;64074;47.540;19.072;2023-02-01T17:53:09;100464.53;;;6.60;63.93
75497;BME280;64074;47.540;19.072;2023-02-01T17:56:36;100459.41;;;6.48;63.62
75497;BME280;64074;47.540;19.072;2023-02-01T17:59:39;100448.09;;;6.51;63.16
75497;BME280;64074;47.540;19.072;2023-02-01T18:02:49;100455.91;;;6.53;62.71
75497;BME280;64074;47.540;19.072;2023-02-01T18:06:00;100456.72;;;6.58;62.12
75497;BME280;64074;47.540;19.072;2023-02-01T18:09:17;100461.84;;;6.65;61.99
75497;BME280;64074;47.540;19.072;2023-02-01T18:12:40;100455.13;;;6.62;61.75
75497;BME280;64074;47.540;19.072;2023-02-01T18:15:49;100455.91;;;6.63;61.14
75497;BME280;64074;47.540;19.072;2023-02-01T18:18:56;100443.47;;;6.41;60.98
75497;BME280;64074;47.540;19.072;2023-02-01T18:22:19;100452.88;;;6.34;61.37
75497;BME280;64074;47.540;19.072;2023-02-01T18:25:30;100445.41;;;6.51;60.05
75497;BME280;64074;47.540;19.072;2023-02-01T18:28:45;100455.13;;;6.62;60.54
75497;BME280;64074;47.540;19.072;2023-02-01T18:31:56;100462.66;;;6.60;59.86
75497;BME280;64074;47.540;19.072;2023-02-01T18:35:28;100455.13;;;6.62;60.63
75497;BME280;64074;47.540;19.072;2023-02-01T18:38:42;100465.88;;;6.47;60.63
75497;BME280;64074;47.540;19.072;2023-02-01T18:42:04;100452.16;;;6.64;61.25
75497;BME280;64074;47.540;19.072;2023-02-01T18:45:34;100458.63;;;6.68;59.79
75497;BME280;64074;47.540;19.072;2023-02-01T18:48:46;100468.84;;;6.61;60.75
75497;BME280;64074;47.540;19.072;2023-02-01T18:51:56;100454.56;;;6.50;61.33
75497;BME280;64074;47.540;19.072;2023-02-01T18:55:28;100455.63;;;6.49;62.23
75497;BME280;64074;47.540;19.072;2023-02-01T18:58:51;100466.16;;;6.51;62.03
75497;BME280;64074;47.540;19.072;2023-02-01T19:02:17;100479.06;;;6.54;61.48
75497;BME280;64074;47.540;19.072;2023-02-01T19:05:37;100463.97;;;6.47;61.93
75497;BME280;64074;47.540;19.072;2023-02-01T19:08:53;100470.19;;;6.48;62.00
75497;BME280;64074;47.540;19.072;2023-02-01T19:12:25;100458.28;;;6.44;62.86
75497;BME280;64074;47.540;19.072;2023-02-01T19:15:50;100449.38;;;6.33;63.19
75497;BME280;64074;47.540;19.072;2023-02-01T19:19:09;100444.25;;;6.22;64.48
75497;BME280;64074;47.540;19.072;2023-02-01T19:22:26;100441.03;;;6.30;62.47
75497;BME280;64074;47.540;19.072;2023-02-01T19:25:47;100438.31;;;6.25;62.44
75497;BME280;64074;47.540;19.072;2023-02-01T19:29:09;100434.31;;;6.32;62.50
75497;BME280;64074;47.540;19.072;2023-02-01T19:32:30;100432.94;;;6.30;61.91
75497;BME280;64074;47.540;19.072;2023-02-01T19:35:56;100417.53;;;6.15;62.27
75497;BME280;64074;47.540;19.072;2023-02-01T19:39:11;100425.41;;;6.32;61.42
75497;BME280;64074;47.540;19.072;2023-02-01T19:42:33;100425.97;;;6.34;61.69
75497;BME280;64074;47.540;19.072;2023-02-01T19:45:54;100417.06;;;6.38;61.00
75497;BME280;64074;47.540;19.072;2023-02-01T19:49:03;100424.63;;;6.36;60.47
75497;BME280;64074;47.540;19.072;2023-02-01T19:52:13;100410.34;;;6.41;60.28
75497;BME280;64074;47.540;19.072;2023-02-01T19:55:27;100413.09;;;6.51;59.24
75497;BME280;64074;47.540;19.072;2023-02-01T19:58:45;100415.00;;;6.71;59.57
75497;BME280;64074;47.540;19.072;2023-02-01T20:02:03;100399.09;;;6.59;59.47
75497;BME280;64074;47.540;19.072;2023-02-01T20:05:07;100412.28;;;6.66;58.97
75497;BME280;64074;47.540;19.072;2023-02-01T20:08:20;100420.91;;;6.58;59.65
75497;BME280;64074;47.540;19.072;2023-02-01T20:11:28;100430.59;;;6.69;58.96
75497;BME280;64074;47.540;19.072;2023-02-01T20:14:36;100433.28;;;6.59;60.16
75497;BME280;64074;47.540;19.072;2023-02-01T20:17:49;100430.31;;;6.55;59.88
75497;BME280;64074;47.540;19.072;2023-02-01T20:20:58;100431.94;;;6.51;60.37
75497;BME280;64074;47.540;19.072;2023-02-01T20:24:12;100429.78;;;6.58;60.51
75497;BME280;64074;47.540;19.072;2023-02-01T20:27:27;100432.47;;;6.48;60.11
75497;BME280;64074;47.540;19.072;2023-02-01T20:30:48;100433.56;;;6.57;60.91
75497;BME280;64074;47.540;19.072;2023-02-01T20:34:09;100438.13;;;6.52;61.43
75497;BME280;64074;47.540;19.072;2023-02-01T20:37:24;100448.38;;;6.55;62.47
75497;BME280;64074;47.540;19.072;2023-02-01T20:40:29;100438.94;;;6.52;64.15
75497;BME280;64074;47.540;19.072;2023-02-01T20:43:40;100463.56;;;6.13;66.32